Time;durP1;ratioP1;P1;durP2;ratioP2;P2;SDS_P1;SDS_P2;PMS_P1;PMS_P2;Temp;Humidity;BMP_temperature;BMP_pressure;BME280_temperature;BME280_humidity;BME280_pressure;Samples;Min_cycle;Max_cycle;Signal;HPM_P1;HPM_P2
2023/01/18 00:00:40;;;;;;;9.00;8.70;;;;;;;12.29;62.80;90996.53;5089870;28;20218;-83
2023/01/18 00:03:10;;;;;;;8.97;8.67;;;;;;;12.13;62.04;90948.56;5089211;28;20184;-82
2023/01/18 00:05:39;;;;;;;8.80;8.50;;;;;;;12.40;61.56;91015.94;5091543;28;20250;-84
2023/01/18 00:08:15;;;;;;;8.47;8.07;;;;;;;12.43;61.75;91031.00;5089415;28;20196;-85
2023/01/18 00:10:42;;;;;;;10.90;10.40;;;;;;;12.40;61.22;91029.03;5088767;28;20227;-84
2023/01/18 00:13:07;;;;;;;9.10;8.77;;;;;;;12.44;61.44;91012.34;5087372;28;20192;-84
2023/01/18 00:15:36;;;;;;;10.60;10.13;;;;;;;12.45;61.58;91036.66;5088351;28;20216;-83
2023/01/18 00:18:02;;;;;;;9.30;8.63;;;;;;;12.35;62.26;91031.84;5087861;28;21292;-85
2023/01/18 00:20:28;;;;;;;12.53;12.03;;;;;;;12.43;61.79;91059.78;5089569;28;20240;-86
2023/01/18 00:22:54;;;;;;;9.70;9.20;;;;;;;12.47;61.70;91060.63;5089023;28;20253;-85
2023/01/18 00:25:22;;;;;;;11.93;11.43;;;;;;;12.43;62.04;91075.47;5087940;28;20296;-83
2023/01/18 00:27:51;;;;;;;8.67;8.37;;;;;;;12.35;62.80;91039.69;5088634;28;20192;-87
2023/01/18 00:30:19;;;;;;;9.73;9.33;;;;;;;12.34;62.79;91066.97;5088069;28;20230;-85
2023/01/18 00:32:46;;;;;;;10.20;9.37;;;;;;;12.39;61.99;91027.50;5088576;28;20187;-84
2023/01/18 00:35:11;;;;;;;10.97;10.30;;;;;;;12.49;61.64;91045.38;5087253;28;20321;-81
2023/01/18 00:37:37;;;;;;;9.57;8.93;;;;;;;12.46;61.71;91035.56;5089191;28;20204;-82
2023/01/18 00:40:04;;;;;;;8.67;8.33;;;;;;;12.41;62.51;91061.94;5089830;28;20260;-83
2023/01/18 00:45:14;;;;;;;9.47;9.07;;;;;;;12.12;63.04;91001.97;5087344;28;20233;-80
2023/01/18 00:47:39;;;;;;;10.23;9.53;;;;;;;12.29;62.64;90997.31;5088874;28;20194;-85
2023/01/18 00:50:06;;;;;;;9.50;9.00;;;;;;;12.35;62.08;91039.69;5088122;28;20293;-87
2023/01/18 00:52:33;;;;;;;9.27;8.87;;;;;;;12.44;61.78;91035.88;5088505;28;20187;-87
2023/01/18 00:55:02;;;;;;;9.20;8.73;;;;;;;12.39;62.19;91051.81;5087647;28;20230;-88
2023/01/18 00:57:28;;;;;;;9.20;8.80;;;;;;;12.35;62.28;91031.84;5088788;28;20210;-85
2023/01/18 00:59:53;;;;;;;9.70;9.23;;;;;;;12.15;62.30;91053.63;5087744;28;20220;-88
2023/01/18 01:02:18;;;;;;;8.60;8.20;;;;;;;12.35;61.83;91066.66;5088721;28;20186;-86
2023/01/18 01:07:28;;;;;;;7.73;7.27;;;;;;;12.40;62.24;91073.50;5088567;28;20613;-86
2023/01/18 01:09:56;;;;;;;9.13;8.63;;;;;;;12.43;62.91;91089.34;5089380;28;20230;-85
2023/01/18 01:26:09;;;;;;;9.77;9.27;;;;;;;12.27;64.09;91082.44;5092523;28;20233;-85
2023/01/18 01:28:48;;;;;;;8.20;7.87;;;;;;;12.23;64.45;91066.59;5092141;28;20199;-88
2023/01/18 01:31:15;;;;;;;8.80;8.50;;;;;;;12.30;63.13;91071.31;5091518;28;20207;-88
2023/01/18 01:33:42;;;;;;;9.00;8.67;;;;;;;12.28;63.53;91078.75;5092641;28;20196;-86
2023/01/18 01:36:11;;;;;;;7.90;7.60;;;;;;;12.44;63.58;91116.25;5108400;28;20252;-87
2023/01/18 01:38:37;;;;;;;9.07;8.53;;;;;;;12.46;63.37;91080.06;5092700;28;20356;-86
2023/01/18 01:41:05;;;;;;;8.07;7.77;;;;;;;12.50;62.11;91094.00;5091478;28;20747;-86
2023/01/18 01:43:46;;;;;;;9.50;8.87;;;;;;;12.40;62.35;91078.75;5092437;28;20187;-86
2023/01/18 01:46:29;;;;;;;8.33;7.93;;;;;;;12.47;62.25;91078.94;5090435;28;20220;-81
2023/01/18 01:49:03;;;;;;;9.47;8.90;;;;;;;12.33;62.87;91073.28;5091620;28;20233;-83
2023/01/18 01:51:32;;;;;;;8.63;8.13;;;;;;;12.47;62.13;91098.03;5091240;28;20234;-84
2023/01/18 01:54:00;;;;;;;8.20;7.90;;;;;;;12.54;61.66;91098.28;5093751;28;20201;-87
2023/01/18 01:56:26;;;;;;;8.60;8.07;;;;;;;12.47;61.79;91077.09;5093129;28;20205;-86
2023/01/18 01:58:57;;;;;;;8.83;8.50;;;;;;;12.50;61.97;91099.25;5092005;28;20189;-87
2023/01/18 02:01:24;;;;;;;9.70;9.20;;;;;;;12.53;61.81;91075.03;5091862;28;20218;-86
2023/01/18 02:03:50;;;;;;;8.70;8.30;;;;;;;12.48;61.37;91073.41;5090292;28;20209;-86
2023/01/18 02:06:32;;;;;;;10.17;9.37;;;;;;;12.38;62.67;91092.16;5092199;28;20189;-85
2023/01/18 02:09:04;;;;;;;8.03;7.73;;;;;;;12.34;63.02;91086.03;5091826;28;20188;-86
2023/01/18 02:11:30;;;;;;;8.50;8.10;;;;;;;12.17;63.21;91067.16;5089930;28;20183;-85
2023/01/18 02:14:00;;;;;;;8.80;8.40;;;;;;;12.25;62.85;91058.47;5091522;28;20218;-82
2023/01/18 02:16:54;;;;;;;8.90;8.50;;;;;;;12.35;62.91;91099.88;5090897;28;20192;-84
2023/01/18 02:19:42;;;;;;;9.17;8.77;;;;;;;12.34;62.96;91082.66;5082339;28;20233;-83
2023/01/18 02:22:53;;;;;;;9.17;8.77;;;;;;;12.40;62.20;91078.75;5090428;28;20247;-85
2023/01/18 02:25:21;;;;;;;8.80;8.17;;;;;;;12.36;63.77;91080.47;5090061;28;20237;-84
2023/01/18 02:28:10;;;;;;;9.50;9.00;;;;;;;12.35;62.13;91097.28;5090894;28;20214;-83
2023/01/18 02:30:43;;;;;;;9.27;8.77;;;;;;;12.51;62.41;91113.88;5123413;27;20226;-85
2023/01/18 02:33:27;;;;;;;8.37;8.00;;;;;;;12.30;62.02;91072.09;5090555;28;20188;-83
2023/01/18 02:35:59;;;;;;;9.17;8.67;;;;;;;12.49;61.79;91089.88;5089258;28;20238;-84
2023/01/18 02:38:34;;;;;;;9.30;8.63;;;;;;;12.41;61.85;91103.81;5092278;28;20274;-83
2023/01/18 02:41:12;;;;;;;8.03;7.67;;;;;;;12.29;62.75;91127.34;5090912;28;20231;-84
2023/01/18 02:48:59;;;;;;;8.83;8.40;;;;;;;12.35;62.11;91147.75;5090156;28;20176;-85
2023/01/18 02:51:25;;;;;;;8.93;8.43;;;;;;;12.42;61.75;91121.06;5091414;28;20287;-81
2023/01/18 02:53:50;;;;;;;9.50;8.67;;;;;;;12.25;61.66;91095.09;5090095;28;20222;-83
2023/01/18 02:56:23;;;;;;;8.37;7.97;;;;;;;12.43;61.62;91159.22;5090749;28;20253;-84
2023/01/18 02:58:57;;;;;;;8.00;7.70;;;;;;;12.38;61.78;91148.97;5089713;28;20216;-80
2023/01/18 03:01:28;;;;;;;9.03;8.60;;;;;;;12.47;61.22;91150.41;5089964;28;20200;-83
2023/01/18 03:04:00;;;;;;;9.33;8.93;;;;;;;12.51;60.61;91134.81;5090014;28;20199;-81
2023/01/18 03:06:28;;;;;;;7.77;7.40;;;;;;;12.38;61.02;91104.47;5089829;28;20195;-84
2023/01/18 03:08:55;;;;;;;9.43;8.87;;;;;;;12.52;61.33;91104.91;5089346;28;20211;-82
2023/01/18 03:11:39;;;;;;;10.47;9.77;;;;;;;12.48;60.60;91098.81;5088600;28;20177;-83
2023/01/18 03:14:35;;;;;;;8.80;8.40;;;;;;;12.57;60.01;91102.88;5089010;28;20188;-85
2023/01/18 03:17:12;;;;;;;8.40;7.40;;;;;;;12.61;59.90;91101.13;5089112;28;20240;-82
2023/01/18 03:25:21;;;;;;;9.00;8.40;;;;;;;12.55;60.35;91072.84;5077671;28;20701;-84
2023/01/18 03:36:11;;;;;;;8.17;7.87;;;;;;;12.54;59.76;91108.75;5089045;28;20274;-82
2023/01/18 03:38:38;;;;;;;9.70;9.10;;;;;;;12.52;60.42;91079.53;5089314;28;20286;-84
2023/01/18 03:41:06;;;;;;;8.97;8.37;;;;;;;12.42;59.82;91079.19;5088174;28;20288;-83
2023/01/18 03:43:37;;;;;;;8.97;8.63;;;;;;;12.55;59.36;91083.31;5090779;28;20185;-84
2023/01/18 03:46:04;;;;;;;9.07;8.63;;;;;;;12.62;59.54;91120.97;5088637;28;20217;-84
2023/01/18 03:48:31;;;;;;;8.83;8.37;;;;;;;12.67;58.96;91099.03;5090137;28;20240;-84
2023/01/18 03:51:14;;;;;;;8.17;7.87;;;;;;;12.50;59.44;91094.00;5104156;28;20243;-84
2023/01/18 03:54:01;;;;;;;8.87;8.37;;;;;;;12.54;59.48;91093.06;5090207;28;20190;-83
2023/01/18 03:56:36;;;;;;;8.63;8.10;;;;;;;12.50;59.21;91128.03;5068998;28;20221;-82
2023/01/18 03:59:04;;;;;;;8.97;8.43;;;;;;;12.73;58.24;91153.47;5070754;28;22239;-83
2023/01/18 04:01:30;;;;;;;7.70;7.20;;;;;;;12.62;60.02;91110.47;5090128;28;20200;-85
2023/01/18 04:03:55;;;;;;;8.83;8.43;;;;;;;12.54;59.75;91134.16;5088587;28;20211;-84
2023/01/18 04:06:22;;;;;;;8.90;8.17;;;;;;;12.45;59.39;91118.53;5089210;28;20197;-83
2023/01/18 04:08:50;;;;;;;8.27;7.90;;;;;;;12.41;59.21;91109.81;5090520;28;20245;-84
2023/01/18 04:11:16;;;;;;;8.27;7.83;;;;;;;12.61;59.21;91135.16;5089683;28;20201;-84
2023/01/18 04:13:41;;;;;;;8.40;7.90;;;;;;;12.60;59.07;91161.66;5089595;28;20184;-85
2023/01/18 04:16:07;;;;;;;9.40;8.90;;;;;;;12.61;58.90;91134.38;5089735;28;20256;-84
2023/01/18 04:18:32;;;;;;;8.93;8.23;;;;;;;12.55;58.93;91148.75;5090059;28;20204;-85
2023/01/18 04:20:58;;;;;;;9.50;8.97;;;;;;;12.66;58.89;91149.88;5088926;28;20317;-85
2023/01/18 04:23:23;;;;;;;8.33;7.63;;;;;;;12.63;58.65;91142.66;5088411;28;20212;-83
2023/01/18 04:25:50;;;;;;;10.23;9.33;;;;;;;12.54;58.58;91132.31;5089446;28;20234;-83
2023/01/18 04:28:24;;;;;;;8.67;8.23;;;;;;;12.59;58.55;91147.03;5089037;28;20207;-82
2023/01/18 04:30:53;;;;;;;8.33;7.93;;;;;;;12.63;59.47;91121.72;5089104;28;20266;-81
2023/01/18 04:33:20;;;;;;;8.77;8.37;;;;;;;12.74;58.34;91149.00;5090014;28;20196;-84
2023/01/18 04:35:47;;;;;;;8.90;8.50;;;;;;;12.75;58.96;91119.09;5086859;28;20241;-86
2023/01/18 04:38:12;;;;;;;9.10;8.40;;;;;;;12.68;58.16;91130.13;5122434;28;20266;-84
2023/01/18 04:40:38;;;;;;;8.10;7.60;;;;;;;12.73;58.08;91129.16;5087785;28;20228;-85
2023/01/18 04:43:03;;;;;;;9.53;8.83;;;;;;;12.74;58.01;91125.44;5089292;28;20210;-84
2023/01/18 04:45:29;;;;;;;9.73;9.00;;;;;;;12.69;57.89;91068.06;5089466;28;20228;-83
2023/01/18 04:47:54;;;;;;;8.70;8.30;;;;;;;12.72;58.13;91101.44;5090345;28;20750;-73
2023/01/18 04:50:20;;;;;;;9.63;9.03;;;;;;;12.70;57.59;91059.88;5089528;28;20228;-73
2023/01/18 04:52:45;;;;;;;10.17;9.40;;;;;;;12.83;56.86;91069.25;5088007;28;20211;-76
2023/01/18 04:55:14;;;;;;;8.43;8.03;;;;;;;12.82;56.87;91057.22;5121549;28;20262;-73
2023/01/18 04:57:42;;;;;;;8.30;8.00;;;;;;;12.82;57.18;91053.88;5088190;28;20230;-72
2023/01/18 05:00:10;;;;;;;8.40;8.10;;;;;;;12.79;57.17;91067.63;5092910;28;20236;-72
2023/01/18 05:02:35;;;;;;;8.77;8.27;;;;;;;12.77;57.77;91061.94;5108762;28;20210;-74
2023/01/18 05:05:03;;;;;;;9.90;9.50;;;;;;;12.77;57.80;91043.63;5094175;28;20224;-72
2023/01/18 05:07:30;;;;;;;9.03;8.37;;;;;;;12.78;56.66;91024.19;5092365;28;20190;-73
2023/01/18 05:09:55;;;;;;;8.40;8.00;;;;;;;12.77;57.97;91028.69;5092277;28;20247;-76
2023/01/18 05:12:21;;;;;;;9.83;9.07;;;;;;;12.81;57.65;91063.56;5125897;27;20196;-75
2023/01/18 05:14:47;;;;;;;9.33;8.70;;;;;;;12.94;56.96;91064.31;5093827;28;20645;-74
2023/01/18 05:17:12;;;;;;;9.53;8.90;;;;;;;12.82;57.27;91051.25;5093578;28;20738;-78
2023/01/18 05:19:39;;;;;;;9.97;9.27;;;;;;;12.90;56.98;91032.03;5092336;28;20856;-76
2023/01/18 05:22:04;;;;;;;9.10;8.60;;;;;;;12.96;56.32;91047.19;5092225;28;20190;-81
2023/01/18 05:24:30;;;;;;;9.33;8.53;;;;;;;12.86;57.47;91078.31;5091940;28;20238;-79
2023/01/18 05:26:56;;;;;;;8.80;8.23;;;;;;;12.93;57.90;91081.16;5091753;28;20259;-77
2023/01/18 05:29:21;;;;;;;9.50;8.83;;;;;;;12.90;57.10;91073.94;5093028;28;20275;-75
2023/01/18 05:31:46;;;;;;;9.40;8.90;;;;;;;12.83;56.58;91052.78;5075187;28;20227;-83
2023/01/18 05:34:12;;;;;;;9.10;8.50;;;;;;;13.03;56.52;91088.56;5091967;28;20278;-83
2023/01/18 05:36:37;;;;;;;9.10;8.43;;;;;;;12.83;56.40;91056.16;5091923;28;20210;-83
2023/01/18 05:39:02;;;;;;;9.43;8.73;;;;;;;12.96;56.62;91119.78;5091831;28;20203;-82
2023/01/18 05:41:28;;;;;;;9.30;8.90;;;;;;;12.94;56.95;91082.66;5090315;28;20855;-83
2023/01/18 05:43:53;;;;;;;9.40;8.90;;;;;;;12.83;57.09;91124.25;5090626;28;20196;-81
2023/01/18 05:46:19;;;;;;;8.50;8.20;;;;;;;12.96;56.18;91114.53;5091727;28;20173;-77
2023/01/18 05:48:44;;;;;;;9.10;8.60;;;;;;;13.08;56.09;91148.59;5090733;28;21139;-82
2023/01/18 05:51:10;;;;;;;9.20;8.80;;;;;;;13.09;55.99;91134.41;5091324;28;20236;-80
2023/01/18 05:53:36;;;;;;;8.93;8.23;;;;;;;13.14;55.69;91181.34;5091674;28;20208;-81
2023/01/18 05:56:04;;;;;;;9.23;8.70;;;;;;;13.01;56.54;91145.78;5089949;28;20209;-82
2023/01/18 05:58:30;;;;;;;9.37;8.60;;;;;;;12.98;56.88;91138.53;5090449;28;20933;-80
2023/01/18 06:00:57;;;;;;;9.70;9.23;;;;;;;12.95;56.83;91178.47;5088845;28;20240;-77
2023/01/18 06:03:24;;;;;;;9.07;8.60;;;;;;;12.89;57.83;91167.47;5087724;28;20204;-79
2023/01/18 06:05:52;;;;;;;9.60;9.20;;;;;;;12.84;56.80;91169.53;5088698;28;20220;-79
2023/01/18 06:08:18;;;;;;;8.43;8.03;;;;;;;12.92;57.17;91160.78;5091611;28;21150;-81
2023/01/18 06:10:51;;;;;;;8.63;8.13;;;;;;;12.98;57.37;91201.38;5089299;28;20280;-81
2023/01/18 06:13:17;;;;;;;9.53;9.03;;;;;;;13.02;57.22;91181.34;5088892;28;20191;-83
2023/01/18 06:15:42;;;;;;;8.13;7.70;;;;;;;12.95;57.23;91183.72;5087479;28;20224;-75
2023/01/18 06:18:07;;;;;;;9.53;8.93;;;;;;;12.91;57.25;91167.13;5089684;28;20216;-74
2023/01/18 06:20:33;;;;;;;8.83;8.13;;;;;;;12.97;57.39;91178.91;5088059;28;20223;-80
2023/01/18 06:22:58;;;;;;;9.43;8.67;;;;;;;12.99;58.02;91192.47;5089428;28;20203;-80
2023/01/18 06:25:25;;;;;;;9.03;8.53;;;;;;;12.90;58.76;91181.31;5090635;28;20223;-82
2023/01/18 06:27:50;;;;;;;9.60;8.90;;;;;;;12.85;58.69;91203.25;5092041;28;20189;-81
2023/01/18 06:30:17;;;;;;;10.20;9.60;;;;;;;12.98;58.25;91178.59;5091160;28;20235;-80
2023/01/18 06:32:42;;;;;;;9.70;9.07;;;;;;;12.99;58.65;91202.94;5086998;28;20182;-78
2023/01/18 06:35:08;;;;;;;8.57;8.17;;;;;;;13.13;58.61;91213.91;5082877;28;20258;-85
2023/01/18 06:37:33;;;;;;;9.27;8.77;;;;;;;13.06;58.21;91210.28;5124837;27;20211;-84
2023/01/18 06:39:58;;;;;;;8.40;8.00;;;;;;;12.98;59.09;91207.41;5089692;28;20274;-84
2023/01/18 06:42:24;;;;;;;8.90;8.33;;;;;;;12.84;60.18;91237.63;5092714;28;20188;-82
2023/01/18 06:44:49;;;;;;;8.60;8.10;;;;;;;12.86;59.78;91225.72;5090633;28;20614;-82
2023/01/18 06:47:18;;;;;;;9.20;8.70;;;;;;;12.83;60.11;91230.84;5091071;28;20180;-81
2023/01/18 06:49:45;;;;;;;8.97;8.37;;;;;;;12.97;59.50;91239.16;5085596;28;20220;-80
2023/01/18 06:52:10;;;;;;;10.60;7.53;;;;;;;12.96;59.58;91258.59;5090626;28;20220;-85
2023/01/18 06:54:36;;;;;;;9.33;8.47;;;;;;;12.98;59.17;91222.34;5090835;28;20236;-82
2023/01/18 06:57:01;;;;;;;7.77;7.30;;;;;;;12.82;59.27;91203.13;5094229;28;20231;-81
2023/01/18 06:59:27;;;;;;;9.93;8.93;;;;;;;12.86;59.49;91177.81;5090409;28;20236;-79
2023/01/18 07:01:53;;;;;;;8.73;8.33;;;;;;;12.96;60.17;91214.81;5090829;28;20192;-82
2023/01/18 07:04:18;;;;;;;7.83;7.27;;;;;;;12.98;59.76;91227.59;5090221;28;20228;-82
2023/01/18 07:06:44;;;;;;;8.57;8.17;;;;;;;12.98;59.87;91211.88;5092045;28;20196;-83
2023/01/18 07:09:09;;;;;;;7.90;7.10;;;;;;;13.06;59.67;91231.25;5089457;28;20291;-81
2023/01/18 07:11:36;;;;;;;8.77;8.07;;;;;;;13.00;59.24;91211.56;5090956;28;20192;-80
2023/01/18 07:14:01;;;;;;;8.57;8.00;;;;;;;13.12;59.16;91243.03;5090103;28;20193;-83
2023/01/18 07:16:28;;;;;;;8.27;7.63;;;;;;;13.03;59.93;91195.22;5091015;28;20199;-80
2023/01/18 07:18:54;;;;;;;9.60;8.77;;;;;;;13.13;58.65;91219.13;5088510;28;20223;-81
2023/01/18 07:21:21;;;;;;;9.80;8.97;;;;;;;13.23;58.12;91217.94;5089110;28;20196;-80
2023/01/18 07:23:48;;;;;;;9.43;8.60;;;;;;;13.27;58.38;91213.56;5090209;28;20208;-80
2023/01/18 07:26:15;;;;;;;9.60;8.67;;;;;;;13.25;57.63;91220.97;5066695;28;20213;-80
2023/01/18 07:28:41;;;;;;;9.50;8.67;;;;;;;13.39;57.24;91206.44;5067612;28;20219;-79
2023/01/18 07:31:07;;;;;;;8.63;8.10;;;;;;;13.27;57.85;91179.50;5089360;28;20228;-79
2023/01/18 07:33:33;;;;;;;9.47;8.67;;;;;;;13.34;58.02;91232.88;5090189;28;20211;-80
2023/01/18 07:35:59;;;;;;;10.20;8.43;;;;;;;13.39;57.54;91216.94;5089449;28;20228;-84
2023/01/18 07:38:25;;;;;;;8.57;8.17;;;;;;;13.31;58.06;91230.91;5088538;28;20212;-86
2023/01/18 07:40:57;;;;;;;8.77;7.93;;;;;;;13.42;57.04;91189.28;5089882;28;20216;-84
2023/01/18 07:43:23;;;;;;;9.60;8.17;;;;;;;13.43;56.58;91201.31;5089913;28;20253;-82
2023/01/18 07:45:52;;;;;;;8.80;8.20;;;;;;;13.47;56.58;91221.31;5089706;28;20227;-87
2023/01/18 07:48:18;;;;;;;9.33;8.47;;;;;;;13.41;56.68;91209.53;5088630;28;20192;-83
2023/01/18 07:51:00;;;;;;;8.73;8.23;;;;;;;13.43;56.93;91206.56;5088812;28;20255;-81
2023/01/18 07:53:26;;;;;;;8.50;7.87;;;;;;;13.45;57.02;91210.38;5090036;28;20193;-78
2023/01/18 07:55:52;;;;;;;8.70;8.30;;;;;;;13.47;57.18;91260.63;5088221;28;20212;-81
2023/01/18 07:58:18;;;;;;;9.33;8.67;;;;;;;13.48;57.37;91267.41;5090648;28;20216;-85
2023/01/18 08:00:44;;;;;;;11.67;8.77;;;;;;;13.58;58.01;91306.28;5089293;28;20304;-82
2023/01/18 08:03:13;;;;;;;9.07;8.47;;;;;;;13.56;57.57;91295.38;5104065;28;20189;-85
2023/01/18 08:05:39;;;;;;;9.37;8.70;;;;;;;13.49;57.53;91289.91;5089005;28;20220;-85
2023/01/18 08:08:07;;;;;;;8.97;8.43;;;;;;;13.56;57.29;91307.69;5088831;28;20265;-85
2023/01/18 08:10:33;;;;;;;8.40;7.97;;;;;;;13.61;56.76;91297.78;5087967;28;20216;-84
2023/01/18 08:12:58;;;;;;;9.37;8.57;;;;;;;13.72;57.45;91298.88;5088104;28;20290;-86
2023/01/18 08:15:23;;;;;;;8.77;8.37;;;;;;;13.62;56.84;91309.78;5089728;28;20231;-80
2023/01/18 08:17:50;;;;;;;9.17;8.40;;;;;;;13.55;57.57;91330.56;5087841;28;20223;-80
2023/01/18 08:20:15;;;;;;;8.90;8.40;;;;;;;13.70;57.36;91366.63;5086751;28;20220;-84
2023/01/18 08:22:41;;;;;;;8.63;7.93;;;;;;;13.62;57.25;91346.50;5086367;28;20216;-84
2023/01/18 08:25:06;;;;;;;9.27;8.43;;;;;;;13.59;57.02;91336.66;5088930;28;20395;-84
2023/01/18 08:27:32;;;;;;;8.47;7.70;;;;;;;13.74;57.40;91375.34;5089445;28;21117;-83
2023/01/18 08:29:57;;;;;;;13.60;8.80;;;;;;;13.73;57.44;91358.09;5087506;28;20262;-87
2023/01/18 08:32:23;;;;;;;8.33;7.83;;;;;;;13.50;57.56;91341.25;5088583;28;20185;-84
2023/01/18 08:34:48;;;;;;;8.73;8.20;;;;;;;13.63;57.21;91342.81;5088508;28;20228;-80
2023/01/18 08:37:15;;;;;;;9.13;8.47;;;;;;;13.59;57.45;91326.19;5088382;28;20896;-79
2023/01/18 08:39:40;;;;;;;8.37;7.73;;;;;;;13.67;57.34;91327.16;5088537;28;20225;-80
2023/01/18 08:42:05;;;;;;;11.10;8.47;;;;;;;13.67;57.78;91330.56;5088811;28;20195;-83
2023/01/18 08:44:31;;;;;;;9.17;8.43;;;;;;;13.71;57.66;91330.66;5088403;28;20228;-80
2023/01/18 08:46:56;;;;;;;8.90;8.10;;;;;;;13.80;57.69;91345.22;5090511;28;20235;-80
2023/01/18 08:49:21;;;;;;;8.70;7.97;;;;;;;13.73;57.99;91336.34;5089257;28;20220;-80
2023/01/18 08:51:47;;;;;;;10.67;9.60;;;;;;;13.76;57.72;91344.31;5087852;28;20234;-80
2023/01/18 08:54:12;;;;;;;8.77;8.17;;;;;;;13.67;57.82;91322.69;5086712;28;20361;-80
2023/01/18 08:56:38;;;;;;;8.70;8.20;;;;;;;13.71;57.66;91331.41;5088704;28;20176;-82
2023/01/18 08:59:07;;;;;;;9.57;8.67;;;;;;;13.67;57.47;91343.66;5089342;28;20236;-78
2023/01/18 09:01:32;;;;;;;8.27;7.63;;;;;;;13.71;57.58;91338.53;5089114;28;20204;-89
2023/01/18 09:03:58;;;;;;;8.73;8.13;;;;;;;13.69;57.62;91325.75;5091255;28;20189;-85
2023/01/18 09:06:24;;;;;;;9.30;8.70;;;;;;;13.68;57.71;91342.56;5088755;28;20185;-83
2023/01/18 09:08:49;;;;;;;9.00;8.40;;;;;;;13.75;57.75;91339.41;5089529;28;20214;-83
2023/01/18 09:11:16;;;;;;;8.00;7.70;;;;;;;13.72;57.50;91359.19;5088426;28;20230;-86
2023/01/18 09:13:43;;;;;;;9.27;8.37;;;;;;;13.72;57.71;91340.06;5089149;28;20184;-85
2023/01/18 09:16:09;;;;;;;10.03;8.10;;;;;;;13.78;58.13;91370.22;5088311;28;20240;-86
2023/01/18 09:18:36;;;;;;;8.87;8.40;;;;;;;13.75;58.06;91392.63;5088772;28;20795;-85
2023/01/18 09:21:10;;;;;;;9.80;9.10;;;;;;;13.72;58.16;91393.28;5088177;28;20228;-85
2023/01/18 09:23:38;;;;;;;9.53;8.83;;;;;;;13.64;58.04;91378.41;5088575;28;20200;-78
2023/01/18 09:26:13;;;;;;;9.40;8.63;;;;;;;13.81;57.83;91416.78;5087965;28;20221;-81
2023/01/18 09:28:38;;;;;;;9.33;8.83;;;;;;;13.66;57.41;91384.09;5089615;28;20192;-80
2023/01/18 09:31:08;;;;;;;8.90;8.47;;;;;;;13.79;58.09;91429.47;5089178;28;20224;-82
2023/01/18 09:33:34;;;;;;;8.37;7.83;;;;;;;13.66;57.38;91378.09;5089025;28;20204;-92
2023/01/18 09:36:06;;;;;;;10.63;9.33;;;;;;;13.90;56.66;91385.97;5088761;28;20244;-89
2023/01/18 09:38:32;;;;;;;9.03;8.50;;;;;;;13.97;57.10;91404.56;5087669;28;20919;-91
2023/01/18 09:40:59;;;;;;;7.73;7.20;;;;;;;13.96;57.03;91397.78;5088577;28;20251;-87
2023/01/18 09:43:46;;;;;;;8.77;8.37;;;;;;;13.78;57.38;91401.69;5089706;28;20179;-83
2023/01/18 09:46:21;;;;;;;8.30;7.80;;;;;;;13.96;57.21;91418.78;5091228;28;20272;-80
2023/01/18 09:48:55;;;;;;;9.37;8.67;;;;;;;13.98;57.26;91401.59;5096137;28;20593;-81
2023/01/18 09:51:52;;;;;;;8.87;8.30;;;;;;;13.98;57.06;91406.06;5071012;28;20225;-81
2023/01/18 09:54:27;;;;;;;9.30;8.60;;;;;;;14.07;56.53;91391.75;5024195;28;20239;-87
2023/01/18 09:57:07;;;;;;;8.47;7.80;;;;;;;13.72;56.61;91376.78;5073000;28;20221;-86
2023/01/18 09:59:46;;;;;;;8.33;7.73;;;;;;;14.06;56.67;91407.81;5103842;28;20233;-91
2023/01/18 10:02:34;;;;;;;9.53;8.80;;;;;;;14.02;55.86;91422.72;5102602;28;20212;-88
2023/01/18 10:05:23;;;;;;;8.60;8.20;;;;;;;14.02;55.95;91402.47;5081319;28;20231;-94
2023/01/18 10:08:13;;;;;;;12.00;8.80;;;;;;;13.86;56.55;91385.88;5091351;28;20220;-93
2023/01/18 10:10:48;;;;;;;9.10;8.30;;;;;;;14.01;56.22;91366.84;5091123;28;20231;-81
2023/01/18 10:13:36;;;;;;;8.53;8.03;;;;;;;14.07;55.46;91375.25;5124317;27;20199;-86
2023/01/18 10:16:02;;;;;;;9.13;8.60;;;;;;;14.05;54.84;91359.84;5090446;28;20825;-84
2023/01/18 10:18:29;;;;;;;10.50;8.37;;;;;;;14.18;55.68;91395.47;5093644;28;20212;-85
2023/01/18 10:21:03;;;;;;;10.13;8.33;;;;;;;14.05;54.56;91349.34;5090560;28;20256;-87
2023/01/18 10:23:39;;;;;;;9.17;8.57;;;;;;;14.15;54.99;91385.63;5091292;28;20800;-81
2023/01/18 10:26:11;;;;;;;8.70;8.20;;;;;;;14.12;54.92;91378.41;5105031;28;20303;-79
2023/01/18 10:28:39;;;;;;;9.53;8.53;;;;;;;14.24;55.01;91396.06;5091297;28;20193;-83
2023/01/18 10:31:14;;;;;;;8.83;7.93;;;;;;;14.18;55.22;91399.94;5088106;28;20220;-80
2023/01/18 10:33:43;;;;;;;9.47;7.97;;;;;;;14.02;54.91;91397.22;5090865;28;20195;-79
2023/01/18 10:36:23;;;;;;;9.23;8.50;;;;;;;14.07;55.61;91433.75;5091059;28;20263;-82
2023/01/18 10:38:53;;;;;;;8.10;7.50;;;;;;;14.06;55.21;91423.56;5090657;28;20298;-79
2023/01/18 10:41:26;;;;;;;10.07;9.23;;;;;;;14.16;55.98;91439.66;5090909;28;20239;-80
2023/01/18 10:43:53;;;;;;;9.10;8.57;;;;;;;14.13;55.08;91450.06;5090587;28;21351;-87
2023/01/18 10:46:19;;;;;;;8.93;8.33;;;;;;;14.09;56.00;91462.28;5090736;28;20211;-90
2023/01/18 10:48:49;;;;;;;9.27;8.70;;;;;;;13.73;55.72;91383.53;5091008;28;20256;-89
2023/01/18 10:51:29;;;;;;;8.60;7.83;;;;;;;14.10;55.81;91446.22;5070274;28;20244;-84
2023/01/18 10:53:55;;;;;;;9.90;8.90;;;;;;;14.03;55.50;91437.34;5070760;28;20193;-85
2023/01/18 10:56:25;;;;;;;8.80;8.07;;;;;;;14.14;54.76;91441.84;5070253;28;20334;-80
2023/01/18 10:58:59;;;;;;;8.73;8.23;;;;;;;14.25;54.70;91463.97;5071332;28;20273;-84
2023/01/18 11:01:26;;;;;;;9.73;8.60;;;;;;;14.25;54.68;91476.34;5090564;28;20181;-87
2023/01/18 11:04:04;;;;;;;8.90;8.30;;;;;;;14.17;54.50;91441.19;5090292;28;20177;-83
2023/01/18 11:06:31;;;;;;;8.93;8.50;;;;;;;14.09;54.72;91457.81;5090815;28;20177;-84
2023/01/18 11:08:56;;;;;;;7.97;7.57;;;;;;;14.06;54.96;91455.84;5091340;28;20256;-84
2023/01/18 11:12:32;;;;;;;8.37;7.77;;;;;;;14.05;54.67;91446.44;5092503;28;20936;-87
2023/01/18 11:14:33;;;;;;;8.27;7.80;;;;;;;14.03;54.55;91429.47;5089500;28;20287;-84
2023/01/18 11:17:09;;;;;;;8.70;8.00;;;;;;;14.17;54.08;91433.31;5103712;28;20220;-82
2023/01/18 11:19:35;;;;;;;9.17;8.13;;;;;;;14.15;54.99;91434.72;5090064;28;20249;-84
2023/01/18 11:22:01;;;;;;;9.07;8.17;;;;;;;14.06;55.64;91419.09;5089159;28;20177;-86
2023/01/18 11:24:30;;;;;;;9.70;8.93;;;;;;;14.09;55.99;91431.56;5125904;27;20240;-79
2023/01/18 11:26:55;;;;;;;9.37;8.90;;;;;;;14.18;55.46;91415.69;5089930;28;20211;-86
2023/01/18 11:29:25;;;;;;;11.30;7.67;;;;;;;14.15;54.47;91432.88;5091512;28;20231;-87
2023/01/18 11:31:53;;;;;;;9.40;8.60;;;;;;;14.09;54.38;91415.03;5090294;28;20205;-85
2023/01/18 11:34:27;;;;;;;8.27;7.87;;;;;;;14.10;54.43;91398.97;5091110;28;20248;-79
2023/01/18 11:36:53;;;;;;;9.03;8.53;;;;;;;14.02;54.33;91412.97;5089654;28;20181;-90
2023/01/18 11:39:24;;;;;;;9.53;8.80;;;;;;;14.17;54.45;91422.81;5092357;28;20244;-91
2023/01/18 11:41:50;;;;;;;10.13;9.00;;;;;;;14.12;54.84;91412.53;5089401;28;20215;-88
2023/01/18 11:44:26;;;;;;;9.83;8.90;;;;;;;14.01;55.23;91400.94;5091055;28;20224;-91
2023/01/18 11:47:02;;;;;;;10.13;8.93;;;;;;;14.02;55.54;91412.22;5088158;28;20564;-85
2023/01/18 11:49:41;;;;;;;8.80;8.20;;;;;;;14.16;54.92;91420.53;5088847;28;20233;-92
2023/01/18 11:52:34;;;;;;;9.00;8.50;;;;;;;14.03;54.23;91422.38;5090683;28;20274;-76
2023/01/18 11:55:05;;;;;;;9.90;9.40;;;;;;;14.24;54.14;91423.06;5088682;28;20228;-85
2023/01/18 11:57:31;;;;;;;9.70;9.03;;;;;;;14.04;54.53;91370.66;5087358;28;20204;-83
2023/01/18 11:59:56;;;;;;;8.77;7.97;;;;;;;14.25;54.60;91395.72;5088768;28;20239;-78
2023/01/18 12:02:37;;;;;;;10.90;9.00;;;;;;;14.34;54.47;91420.00;5089483;28;20193;-83
2023/01/18 12:05:26;;;;;;;10.93;8.77;;;;;;;14.34;53.73;91432.34;5089145;28;20232;-85
2023/01/18 12:08:16;;;;;;;8.90;8.20;;;;;;;14.44;53.06;91418.78;5122431;27;20184;-79
2023/01/18 12:11:06;;;;;;;10.70;8.93;;;;;;;14.45;52.71;91394.81;5087955;28;20228;-81
2023/01/18 12:13:33;;;;;;;9.00;8.40;;;;;;;14.59;55.14;91415.47;5088755;28;20188;-84
2023/01/18 12:16:03;;;;;;;10.07;9.13;;;;;;;14.81;51.96;91417.63;5088722;28;20243;-82
2023/01/18 12:18:55;;;;;;;14.53;8.93;;;;;;;14.51;52.40;91428.75;5089250;28;20358;-78
2023/01/18 12:21:46;;;;;;;12.37;9.03;;;;;;;14.36;53.31;91453.81;5089374;28;20201;-80